Time;durP1;ratioP1;P1;durP2;ratioP2;P2;SDS_P1;SDS_P2;PMS_P1;PMS_P2;Temp;Humidity;BMP_temperature;BMP_pressure;BME280_temperature;BME280_humidity;BME280_pressure;Samples;Min_cycle;Max_cycle;Signal;HPM_P1;HPM_P2
2022/12/22 03:25:53;;;;;;;53.13;26.52;;;;;;;8.73;100.00;100322.75;5043586;28;20035;-77
2022/12/22 03:28:25;;;;;;;51.35;28.58;;;;;;;8.64;100.00;100325.81;5044066;28;20028;-75
2022/12/22 03:30:53;;;;;;;58.17;26.38;;;;;;;8.63;100.00;100321.38;5036310;28;20080;-76
2022/12/22 03:33:19;;;;;;;47.63;24.77;;;;;;;8.57;100.00;100320.28;5035801;28;20040;-77
2022/12/22 03:35:44;;;;;;;49.88;23.05;;;;;;;8.56;100.00;100320.50;5041189;28;20037;-75
2022/12/22 03:38:09;;;;;;;51.03;26.73;;;;;;;8.51;100.00;100312.91;5040520;28;20032;-75
2022/12/22 03:40:35;;;;;;;44.97;24.27;;;;;;;8.52;100.00;100313.72;5035393;28;20043;-77
2022/12/22 03:48:28;;;;;;;37.35;22.35;;;;;;;8.44;100.00;100309.25;5036259;28;20053;-76
2022/12/22 03:50:54;;;;;;;52.97;24.52;;;;;;;8.57;100.00;100319.44;5040837;28;20033;-76
2022/12/22 03:53:22;;;;;;;46.65;25.02;;;;;;;8.51;100.00;100325.69;5037309;28;20029;-76
2022/12/22 03:55:47;;;;;;;50.30;25.48;;;;;;;8.53;100.00;100320.88;5039148;28;20025;-75
2022/12/22 03:58:13;;;;;;;52.47;28.25;;;;;;;8.53;100.00;100327.19;5028702;28;20124;-76
2022/12/22 04:00:38;;;;;;;50.73;26.20;;;;;;;8.52;100.00;100328.22;5041033;28;20028;-76
2022/12/22 04:03:03;;;;;;;46.93;26.07;;;;;;;8.51;100.00;100322.97;5038877;28;20032;-76
2022/12/22 04:05:29;;;;;;;58.33;27.77;;;;;;;8.50;100.00;100322.09;5036595;28;20057;-76
2022/12/22 04:07:54;;;;;;;51.50;27.25;;;;;;;8.56;100.00;100331.41;5042559;28;20038;-75
2022/12/22 04:13:03;;;;;;;60.30;29.67;;;;;;;8.56;100.00;100335.00;5038810;28;20403;-76
2022/12/22 04:15:31;;;;;;;62.47;28.85;;;;;;;8.59;100.00;100331.84;5038658;28;20025;-76
2022/12/22 04:17:57;;;;;;;62.22;29.25;;;;;;;8.57;100.00;100338.53;5035729;28;20120;-76
2022/12/22 04:20:27;;;;;;;58.50;30.13;;;;;;;8.65;100.00;100343.88;5035098;28;20063;-76
2022/12/22 04:22:55;;;;;;;56.75;29.13;;;;;;;8.61;100.00;100337.97;5034510;28;20030;-76
2022/12/22 04:25:20;;;;;;;66.80;31.42;;;;;;;8.63;100.00;100340.47;5037278;28;20029;-76
2022/12/22 04:27:46;;;;;;;61.55;30.33;;;;;;;8.62;100.00;100338.81;5038609;28;20040;-75
2022/12/22 04:30:12;;;;;;;53.72;30.08;;;;;;;8.63;100.00;100337.75;5033669;28;20149;-76
2022/12/22 04:32:38;;;;;;;59.73;31.53;;;;;;;8.66;100.00;100337.38;5033670;28;20037;-76
2022/12/22 04:35:04;;;;;;;62.22;30.73;;;;;;;8.66;100.00;100342.84;5041193;28;20029;-76
2022/12/22 04:37:30;;;;;;;57.85;30.70;;;;;;;8.64;100.00;100340.28;5036621;28;20412;-76
2022/12/22 04:39:55;;;;;;;67.22;31.60;;;;;;;8.70;100.00;100344.97;5036651;28;20041;-76
2022/12/22 04:42:21;;;;;;;59.58;28.98;;;;;;;8.64;100.00;100339.47;5034085;28;20107;-76
2022/12/22 04:44:46;;;;;;;62.92;31.13;;;;;;;8.71;100.00;100343.91;5040757;28;20063;-76
2022/12/22 04:47:12;;;;;;;61.57;30.40;;;;;;;8.70;100.00;100344.97;5033876;28;20116;-75
2022/12/22 04:49:37;;;;;;;54.13;28.80;;;;;;;8.66;100.00;100342.84;5034771;28;20033;-76
2022/12/22 04:52:03;;;;;;;56.22;27.70;;;;;;;8.71;100.00;100345.81;5037047;28;20049;-76
2022/12/22 04:54:28;;;;;;;58.15;27.88;;;;;;;8.67;100.00;100345.38;5033528;28;20028;-77
2022/12/22 04:56:53;;;;;;;62.33;28.38;;;;;;;8.67;100.00;100349.97;5037568;28;20558;-75
2022/12/22 04:59:19;;;;;;;57.95;27.08;;;;;;;8.70;100.00;100352.31;5032131;28;20026;-76
2022/12/22 05:01:44;;;;;;;59.63;26.13;;;;;;;8.62;100.00;100350.56;5039036;28;20033;-76
2022/12/22 05:04:10;;;;;;;58.27;27.10;;;;;;;8.62;100.00;100350.56;5039611;28;20032;-75
2022/12/22 05:06:35;;;;;;;64.22;29.73;;;;;;;8.62;100.00;100352.44;5036955;28;20112;-75
2022/12/22 05:09:00;;;;;;;66.82;28.45;;;;;;;8.63;100.00;100355.00;5031385;28;20033;-75
2022/12/22 05:11:26;;;;;;;60.72;27.48;;;;;;;8.63;100.00;100349.53;5030030;28;20104;-75
2022/12/22 05:13:51;;;;;;;62.53;28.23;;;;;;;8.65;100.00;100341.16;5032007;28;20484;-76
2022/12/22 05:16:17;;;;;;;68.40;28.55;;;;;;;8.65;100.00;100360.25;5034330;28;20123;-75
2022/12/22 05:18:44;;;;;;;67.93;28.15;;;;;;;8.64;100.00;100367.59;5032756;28;20122;-75
2022/12/22 05:21:21;;;;;;;67.35;30.98;;;;;;;8.64;100.00;100366.78;5036664;28;20037;-76
2022/12/22 05:23:46;;;;;;;75.32;31.25;;;;;;;8.60;100.00;100373.66;5034883;28;20032;-76
2022/12/22 05:26:13;;;;;;;71.63;29.13;;;;;;;8.63;100.00;100381.44;5036864;28;20523;-77
2022/12/22 05:28:39;;;;;;;71.55;29.90;;;;;;;8.59;100.00;100393.81;5034902;28;20025;-77
2022/12/22 05:31:08;;;;;;;75.40;29.67;;;;;;;8.61;100.00;100394.44;5030161;28;20123;-76
2022/12/22 05:33:34;;;;;;;71.35;30.67;;;;;;;8.57;100.00;100404.06;5032438;28;20448;-75
2022/12/22 05:35:59;;;;;;;64.63;27.95;;;;;;;8.59;100.00;100404.72;5037711;28;20429;-76
2022/12/22 05:38:25;;;;;;;62.53;29.15;;;;;;;8.54;100.00;100399.84;5033042;28;20032;-76
2022/12/22 05:40:50;;;;;;;68.38;29.65;;;;;;;8.58;100.00;100400.28;5027555;28;20097;-76
2022/12/22 05:43:16;;;;;;;59.35;28.60;;;;;;;8.59;100.00;100412.91;5038966;28;20025;-77
2022/12/22 05:45:44;;;;;;;63.33;26.88;;;;;;;8.56;100.00;100413.28;5034789;28;20041;-76
2022/12/22 05:48:10;;;;;;;61.03;28.02;;;;;;;8.50;100.00;100416.81;5036428;28;20036;-75
2022/12/22 05:50:35;;;;;;;60.97;27.60;;;;;;;8.50;100.00;100419.53;5026648;28;20393;-76
2022/12/22 05:53:00;;;;;;;62.00;26.17;;;;;;;8.46;100.00;100413.63;5031588;28;20021;-76
2022/12/22 05:55:26;;;;;;;63.55;27.58;;;;;;;8.53;100.00;100425.44;5034153;28;20052;-77
2022/12/22 05:57:52;;;;;;;63.43;26.90;;;;;;;8.46;100.00;100424.53;5036610;28;20143;-76
2022/12/22 06:00:18;;;;;;;57.28;24.48;;;;;;;8.36;100.00;100421.28;5035844;28;20037;-76
2022/12/22 06:02:44;;;;;;;53.93;25.13;;;;;;;8.34;100.00;100414.31;5038706;28;20029;-75
2022/12/22 06:05:11;;;;;;;59.17;24.85;;;;;;;8.30;100.00;100416.59;5038539;28;20534;-76
2022/12/22 06:07:37;;;;;;;55.30;25.50;;;;;;;8.27;100.00;100411.50;5036819;28;20389;-76
2022/12/22 06:10:04;;;;;;;53.60;23.88;;;;;;;8.27;100.00;100403.34;5040140;28;20082;-76
2022/12/22 06:12:29;;;;;;;47.13;24.00;;;;;;;8.27;100.00;100411.50;5042775;28;20036;-76
2022/12/22 06:14:55;;;;;;;53.50;25.20;;;;;;;8.22;100.00;100421.34;5041903;28;20032;-76
2022/12/22 06:17:20;;;;;;;50.25;23.58;;;;;;;8.18;100.00;100422.72;5039122;28;20061;-76
2022/12/22 06:19:45;;;;;;;45.30;21.83;;;;;;;8.11;100.00;100424.53;5041902;28;20028;-76
2022/12/22 06:22:11;;;;;;;51.42;21.77;;;;;;;8.05;100.00;100430.72;5046798;28;20017;-75
2022/12/22 06:24:36;;;;;;;48.75;22.83;;;;;;;8.06;100.00;100435.16;5041014;28;20037;-76
2022/12/22 06:27:02;;;;;;;51.63;22.13;;;;;;;8.01;100.00;100443.91;5040266;28;20374;-76
2022/12/22 06:29:27;;;;;;;51.30;21.15;;;;;;;7.94;100.00;100462.06;5038685;28;20106;-76
2022/12/22 06:31:52;;;;;;;44.83;20.10;;;;;;;7.95;100.00;100454.75;5044990;28;20044;-76
2022/12/22 06:34:18;;;;;;;43.08;20.20;;;;;;;7.85;100.00;100462.38;5040339;28;20029;-76
2022/12/22 06:36:45;;;;;;;44.05;21.45;;;;;;;7.81;100.00;100456.47;5040332;28;20061;-75
2022/12/22 06:39:12;;;;;;;47.40;20.75;;;;;;;7.77;100.00;100474.22;5031561;28;20029;-77
2022/12/22 06:44:21;;;;;;;40.05;20.45;;;;;;;7.80;100.00;100486.63;5043768;28;20029;-74
2022/12/22 06:46:47;;;;;;;39.60;19.95;;;;;;;7.83;100.00;100491.69;5039979;28;20025;-76
2022/12/22 06:49:12;;;;;;;37.47;20.42;;;;;;;7.81;100.00;100489.19;5038081;28;20043;-75
2022/12/22 06:51:38;;;;;;;52.15;20.67;;;;;;;7.82;100.00;100473.63;5036219;28;20431;-75
2022/12/22 06:54:03;;;;;;;49.22;19.65;;;;;;;7.77;100.00;100487.00;5039191;28;20033;-75
2022/12/22 06:56:29;;;;;;;43.03;19.80;;;;;;;7.74;100.00;100488.22;5047269;28;20032;-75
2022/12/22 06:58:54;;;;;;;42.08;18.67;;;;;;;7.69;100.00;100495.28;5043024;28;20044;-75
2022/12/22 07:01:20;;;;;;;43.27;19.03;;;;;;;7.66;100.00;100490.19;5040280;28;20030;-75
2022/12/22 07:03:45;;;;;;;41.30;18.00;;;;;;;7.62;100.00;100497.91;5044147;28;20013;-75
2022/12/22 07:06:10;;;;;;;39.70;15.48;;;;;;;7.57;100.00;100492.16;5037546;28;20083;-75
2022/12/22 07:08:36;;;;;;;37.63;15.77;;;;;;;7.53;100.00;100488.09;5043786;28;20037;-75
2022/12/22 07:11:01;;;;;;;46.75;16.70;;;;;;;7.51;100.00;100509.25;5036407;28;20500;-75
2022/12/22 07:13:33;;;;;;;39.67;16.13;;;;;;;7.42;100.00;100521.25;5044812;28;20526;-75
2022/12/22 07:16:03;;;;;;;37.30;14.48;;;;;;;7.42;100.00;100526.72;5041206;28;20079;-75
2022/12/22 07:18:31;;;;;;;38.80;16.45;;;;;;;7.44;100.00;100523.81;5042628;28;20029;-75
2022/12/22 07:20:58;;;;;;;34.92;16.90;;;;;;;7.40;100.00;100526.06;5040840;28;20519;-76
2022/12/22 07:23:24;;;;;;;37.63;16.48;;;;;;;7.32;100.00;100519.84;5041297;28;20056;-76
2022/12/22 07:25:50;;;;;;;36.42;16.55;;;;;;;7.27;100.00;100522.28;5039763;28;20044;-75
2022/12/22 07:28:16;;;;;;;41.58;17.00;;;;;;;7.25;100.00;100527.91;5056181;28;20067;-75
2022/12/22 07:30:41;;;;;;;36.65;16.77;;;;;;;7.27;100.00;100547.63;5041328;28;20056;-75
2022/12/22 07:33:06;;;;;;;33.80;14.88;;;;;;;7.24;100.00;100558.03;5043154;28;20484;-75
2022/12/22 07:35:32;;;;;;;36.20;14.77;;;;;;;7.18;100.00;100556.06;5044076;28;20487;-74
2022/12/22 07:37:57;;;;;;;32.92;14.25;;;;;;;7.12;100.00;100551.34;5038155;28;20075;-75
2022/12/22 07:40:22;;;;;;;36.75;15.30;;;;;;;7.12;100.00;100556.78;5040097;28;20105;-75
2022/12/22 07:42:48;;;;;;;32.85;14.90;;;;;;;7.09;100.00;100551.69;5039039;28;20082;-74
2022/12/22 07:45:18;;;;;;;42.70;16.02;;;;;;;7.09;100.00;100565.31;5044701;28;20222;-75
2022/12/22 07:47:45;;;;;;;38.80;16.33;;;;;;;7.12;100.00;100560.38;5037250;28;20546;-74
2022/12/22 07:50:31;;;;;;;31.00;15.25;;;;;;;7.05;100.00;100572.16;5035261;28;20029;-76
2022/12/22 07:52:58;;;;;;;32.88;15.88;;;;;;;6.93;100.00;100573.59;5035582;28;20408;-77
2022/12/22 07:55:26;;;;;;;36.97;14.63;;;;;;;6.89;100.00;100573.09;5036604;28;20029;-77
2022/12/22 07:57:52;;;;;;;39.67;14.75;;;;;;;6.91;100.00;100581.97;5028973;28;20029;-77
2022/12/22 08:00:19;;;;;;;34.25;13.60;;;;;;;6.86;100.00;100576.22;5032461;28;20119;-77
2022/12/22 08:02:53;;;;;;;32.03;13.60;;;;;;;6.87;100.00;100585.19;5039184;28;20048;-77
2022/12/22 08:05:19;;;;;;;40.33;15.43;;;;;;;6.88;100.00;100589.66;5033962;28;20044;-77
2022/12/22 08:07:47;;;;;;;28.63;13.80;;;;;;;6.88;100.00;100592.38;5036641;28;20036;-77
2022/12/22 08:10:12;;;;;;;39.88;12.75;;;;;;;6.84;100.00;100591.84;5034599;28;20032;-74
2022/12/22 08:12:38;;;;;;;34.33;15.23;;;;;;;6.81;100.00;100597.69;5039441;28;20029;-74
2022/12/22 08:15:05;;;;;;;37.13;13.90;;;;;;;6.77;100.00;100600.91;5037100;28;20089;-74
2022/12/22 08:17:30;;;;;;;38.05;14.27;;;;;;;6.76;100.00;100604.66;5038658;28;20067;-74
2022/12/22 08:19:56;;;;;;;32.97;13.63;;;;;;;6.66;100.00;100621.22;5031910;28;20474;-73
2022/12/22 08:22:25;;;;;;;37.05;14.50;;;;;;;6.65;100.00;100630.44;5037342;28;20060;-74
2022/12/22 08:24:52;;;;;;;39.58;15.98;;;;;;;6.65;100.00;100635.88;5036623;28;20025;-74
2022/12/22 08:27:23;;;;;;;44.30;16.80;;;;;;;6.67;100.00;100636.53;5037740;28;20032;-74
2022/12/22 08:29:52;;;;;;;36.25;16.65;;;;;;;6.72;100.00;100655.91;5035950;28;20072;-74
2022/12/22 08:32:18;;;;;;;34.05;17.00;;;;;;;6.79;100.00;100658.75;5042721;28;20100;-76
2022/12/22 08:34:44;;;;;;;39.95;17.08;;;;;;;6.84;100.00;100648.19;5034737;28;20029;-75
2022/12/22 08:37:14;;;;;;;40.72;16.48;;;;;;;6.86;100.00;100662.47;5037839;28;20037;-74
2022/12/22 08:39:41;;;;;;;37.38;16.23;;;;;;;6.85;100.00;100674.38;5027513;28;20029;-74
2022/12/22 08:42:10;;;;;;;31.05;15.30;;;;;;;6.79;100.00;100670.47;5034277;28;20127;-76
2022/12/22 08:44:37;;;;;;;35.00;15.20;;;;;;;6.79;100.00;100670.47;5033915;28;20036;-74
2022/12/22 08:47:03;;;;;;;35.13;15.02;;;;;;;6.74;100.00;100672.06;5032423;28;20029;-73
2022/12/22 08:49:29;;;;;;;31.90;15.48;;;;;;;6.78;100.00;100673.41;5028998;28;20044;-74
2022/12/22 08:51:54;;;;;;;34.17;14.45;;;;;;;6.80;100.00;100677.66;5038970;28;20101;-73
2022/12/22 08:54:20;;;;;;;28.33;13.18;;;;;;;6.83;100.00;100676.44;5032982;28;20026;-76
2022/12/22 08:56:46;;;;;;;26.77;12.90;;;;;;;6.81;100.00;100671.16;5037232;28;20774;-74
2022/12/22 08:59:12;;;;;;;27.90;13.45;;;;;;;6.79;100.00;100669.66;5036607;28;20091;-74
2022/12/22 09:01:44;;;;;;;29.90;12.98;;;;;;;6.83;100.00;100677.28;5036397;28;20029;-74
2022/12/22 09:04:15;;;;;;;22.50;11.77;;;;;;;6.83;100.00;100676.44;5039491;28;20033;-74
2022/12/22 09:06:41;;;;;;;27.85;12.15;;;;;;;6.88;100.00;100679.47;5035202;28;20637;-74
2022/12/22 09:09:08;;;;;;;32.67;13.13;;;;;;;6.83;100.00;100682.72;5035989;28;20022;-74
2022/12/22 09:11:34;;;;;;;25.20;12.32;;;;;;;6.85;100.00;100690.72;5041593;28;20033;-74
2022/12/22 09:14:00;;;;;;;29.27;12.18;;;;;;;6.82;100.00;100682.88;5034152;28;20370;-74
2022/12/22 09:16:28;;;;;;;23.88;12.38;;;;;;;6.90;100.00;100685.59;5039372;28;20031;-74
2022/12/22 09:18:54;;;;;;;26.02;12.35;;;;;;;6.89;100.00;100692.06;5034103;28;20488;-74
2022/12/22 09:21:21;;;;;;;25.73;12.07;;;;;;;6.91;100.00;100704.47;5033877;28;20441;-74
2022/12/22 09:23:46;;;;;;;25.70;12.45;;;;;;;6.93;100.00;100699.69;5032767;28;20804;-73
2022/12/22 09:26:15;;;;;;;25.98;13.70;;;;;;;7.01;100.00;100710.56;5038858;28;20033;-74
2022/12/22 09:28:41;;;;;;;29.90;13.43;;;;;;;7.01;100.00;100707.84;5036883;28;20505;-74
2022/12/22 09:31:07;;;;;;;29.70;12.60;;;;;;;7.09;100.00;100710.50;5036008;28;20072;-74
2022/12/22 09:33:35;;;;;;;25.67;13.82;;;;;;;7.19;100.00;100710.25;5032498;28;20397;-74
2022/12/22 09:36:04;;;;;;;38.03;14.20;;;;;;;7.09;100.00;100720.53;5035838;28;20029;-74
2022/12/22 09:38:29;;;;;;;29.25;12.30;;;;;;;7.18;100.00;100720.34;5032805;28;20444;-74
2022/12/22 09:40:56;;;;;;;26.13;11.95;;;;;;;7.20;100.00;100711.97;5037004;28;20065;-74
2022/12/22 09:43:27;;;;;;;33.30;13.40;;;;;;;7.29;100.00;100721.78;5037053;28;20156;-75
2022/12/22 09:45:53;;;;;;;29.67;12.77;;;;;;;7.32;100.00;100726.88;5039042;28;20039;-75
2022/12/22 09:48:19;;;;;;;22.88;11.45;;;;;;;7.41;100.00;100725.78;5040322;28;20112;-74
2022/12/22 09:50:45;;;;;;;29.20;11.63;;;;;;;7.40;100.00;100724.97;5035870;28;20112;-77
2022/12/22 09:53:22;;;;;;;21.20;10.57;;;;;;;7.49;100.00;100723.03;5034641;28;20045;-75
2022/12/22 09:55:49;;;;;;;25.67;9.60;;;;;;;7.48;100.00;100724.06;5033441;28;20033;-75
2022/12/22 09:58:28;;;;;;;26.83;10.95;;;;;;;7.55;100.00;100730.47;5032304;28;20044;-74
2022/12/22 10:01:26;;;;;;;25.73;12.65;;;;;;;7.51;100.00;100729.13;5032621;28;20107;-74
2022/12/22 10:04:40;;;;;;;31.70;12.03;;;;;;;7.60;100.00;100725.34;5032308;28;20155;-75
2022/12/22 10:07:26;;;;;;;27.90;12.63;;;;;;;7.64;100.00;100727.50;5019714;28;20049;-75
2022/12/22 10:09:51;;;;;;;23.80;11.00;;;;;;;7.66;100.00;100730.06;5035248;28;20092;-74
2022/12/22 10:12:20;;;;;;;27.75;11.20;;;;;;;7.66;100.00;100728.19;5030218;28;20061;-75
2022/12/22 10:14:47;;;;;;;26.60;10.68;;;;;;;7.71;100.00;100733.09;5031456;28;20492;-74
2022/12/22 10:17:13;;;;;;;27.52;11.73;;;;;;;7.73;100.00;100726.41;5030550;28;20123;-75
2022/12/22 10:19:38;;;;;;;29.70;12.27;;;;;;;7.70;100.00;100728.66;5038708;28;20088;-74
2022/12/22 10:22:37;;;;;;;30.20;12.07;;;;;;;7.79;100.00;100724.88;5037229;28;20765;-75
2022/12/22 10:25:05;;;;;;;28.67;12.98;;;;;;;7.77;100.00;100725.03;5027178;28;20171;-74
2022/12/22 10:27:36;;;;;;;33.05;14.27;;;;;;;7.78;100.00;100717.69;5043856;28;20464;-74
2022/12/22 10:30:19;;;;;;;32.05;14.85;;;;;;;7.78;100.00;100717.69;5032609;28;20056;-76
2022/12/22 10:33:04;;;;;;;25.70;12.55;;;;;;;7.84;100.00;100727.88;5033504;28;20025;-74
2022/12/22 10:35:55;;;;;;;24.58;11.57;;;;;;;7.89;100.00;100737.19;5021107;28;20546;-75
2022/12/22 10:38:25;;;;;;;22.58;9.98;;;;;;;7.98;100.00;100743.44;5031170;28;20036;-75
2022/12/22 10:40:54;;;;;;;24.48;11.05;;;;;;;7.98;100.00;100752.47;5036144;28;20036;-74
2022/12/22 10:43:23;;;;;;;22.77;10.52;;;;;;;8.03;100.00;100749.19;5032909;28;20029;-75
2022/12/22 10:45:51;;;;;;;31.40;10.90;;;;;;;8.09;100.00;100753.91;5031903;28;20036;-75
2022/12/22 10:48:16;;;;;;;28.17;11.50;;;;;;;8.08;100.00;100764.00;5034734;28;20036;-76
2022/12/22 10:50:48;;;;;;;28.05;12.15;;;;;;;8.15;100.00;100766.81;5030369;28;20029;-75
2022/12/22 10:53:14;;;;;;;23.75;14.85;;;;;;;8.09;100.00;100759.38;5030310;28;20111;-75
2022/12/22 10:55:40;;;;;;;27.40;15.23;;;;;;;8.03;100.00;100762.81;5042563;28;20100;-76
2022/12/22 10:58:08;;;;;;;28.08;16.48;;;;;;;8.10;100.00;100766.50;5037463;28;20025;-77
2022/12/22 11:00:34;;;;;;;36.45;17.83;;;;;;;8.02;100.00;100775.59;5048261;28;20369;-75
2022/12/22 11:03:01;;;;;;;45.88;20.15;;;;;;;7.76;100.00;100791.50;5038399;28;20082;-75
2022/12/22 11:05:27;;;;;;;39.45;20.25;;;;;;;7.70;100.00;100792.19;5037461;28;20060;-75
2022/12/22 11:07:52;;;;;;;46.70;22.08;;;;;;;7.50;100.00;100790.97;5042368;28;20024;-75
2022/12/22 11:10:22;;;;;;;50.95;20.77;;;;;;;7.44;100.00;100785.38;5038334;28;20026;-76
2022/12/22 11:13:01;;;;;;;46.17;20.23;;;;;;;7.34;100.00;100796.53;5037805;28;20075;-76
2022/12/22 11:15:26;;;;;;;51.45;19.02;;;;;;;7.27;100.00;100797.41;5038099;28;20090;-75
2022/12/22 11:17:57;;;;;;;56.00;20.90;;;;;;;7.15;100.00;100807.81;5043333;28;20025;-74
2022/12/22 11:20:39;;;;;;;41.42;19.10;;;;;;;7.02;100.00;100798.53;5036621;28;20033;-75
2022/12/22 11:23:04;;;;;;;42.28;17.40;;;;;;;7.05;100.00;100809.91;5035143;28;20624;-75
2022/12/22 11:25:45;;;;;;;56.97;20.73;;;;;;;7.07;100.00;100824.22;5035342;28;20101;-75
2022/12/22 11:28:16;;;;;;;54.22;23.15;;;;;;;6.99;100.00;100813.34;5039784;28;20056;-75
2022/12/22 11:30:58;;;;;;;43.47;21.55;;;;;;;6.95;100.00;100816.59;5035164;28;20551;-74
2022/12/22 11:33:33;;;;;;;54.25;24.38;;;;;;;6.98;100.00;100813.50;5045197;28;20025;-75
2022/12/22 11:36:05;;;;;;;45.22;23.17;;;;;;;6.84;100.00;100823.25;5041830;28;20033;-74
2022/12/22 11:38:36;;;;;;;50.30;23.73;;;;;;;6.81;100.00;100809.13;5038666;28;20130;-75
2022/12/22 11:41:32;;;;;;;51.75;21.77;;;;;;;6.76;100.00;100817.84;5046183;28;20532;-74
2022/12/22 11:44:18;;;;;;;50.65;22.27;;;;;;;6.79;100.00;100805.75;5029513;28;20385;-75
2022/12/22 11:46:52;;;;;;;53.47;21.40;;;;;;;6.76;100.00;100809.66;5027724;28;20512;-74
2022/12/22 11:49:30;;;;;;;52.80;23.48;;;;;;;6.79;100.00;100801.13;5033706;28;20028;-74
2022/12/22 11:52:03;;;;;;;52.88;24.42;;;;;;;6.78;100.00;100785.84;5030756;28;20040;-74
2022/12/22 11:54:38;;;;;;;57.03;24.45;;;;;;;6.92;100.00;100789.69;5037732;28;20028;-74
2022/12/22 11:57:16;;;;;;;59.55;25.70;;;;;;;6.91;100.00;100783.44;5037263;28;20027;-75
2022/12/22 12:00:10;;;;;;;58.45;26.02;;;;;;;6.93;100.00;100775.06;5036954;28;20035;-75
2022/12/22 12:03:14;;;;;;;62.88;26.90;;;;;;;6.99;100.00;100772.50;5040193;28;20476;-75
2022/12/22 12:05:52;;;;;;;63.45;28.42;;;;;;;7.05;100.00;100782.69;5038807;28;20033;-74
2022/12/22 12:08:20;;;;;;;64.53;30.50;;;;;;;7.13;100.00;100789.97;5045086;28;20025;-75
2022/12/22 12:11:06;;;;;;;60.38;29.42;;;;;;;7.15;100.00;100779.75;5032551;28;20052;-75
2022/12/22 12:13:59;;;;;;;58.67;29.27;;;;;;;7.22;100.00;100780.75;5011112;28;20057;-75
2022/12/22 12:17:05;;;;;;;62.13;30.17;;;;;;;7.29;100.00;100770.81;5037381;28;20048;-75
2022/12/22 12:19:38;;;;;;;56.13;28.83;;;;;;;7.38;100.00;100764.31;5032911;28;20033;-76
2022/12/22 12:22:27;;;;;;;64.03;28.67;;;;;;;7.43;100.00;100753.72;5035618;28;20121;-76
2022/12/22 12:25:16;;;;;;;59.47;26.25;;;;;;;7.45;100.00;100751.66;5011929;28;20403;-76
2022/12/22 12:27:59;;;;;;;68.22;27.77;;;;;;;7.47;100.00;100750.44;5038141;28;20382;-76
2022/12/22 12:30:25;;;;;;;54.05;26.65;;;;;;;7.57;100.00;100750.22;5033980;28;20075;-77
2022/12/22 12:32:51;;;;;;;58.70;28.63;;;;;;;7.66;100.00;100741.81;5031979;28;20052;-76
2022/12/22 12:35:45;;;;;;;66.82;30.98;;;;;;;7.72;100.00;100745.69;5040030;28;20059;-76
2022/12/22 12:38:20;;;;;;;69.95;31.80;;;;;;;7.75;100.00;100742.59;5036611;28;20432;-76
2022/12/22 12:40:52;;;;;;;77.30;33.85;;;;;;;7.77;100.00;100735.09;5040302;28;20025;-76
2022/12/22 12:43:19;;;;;;;74.20;32.97;;;;;;;7.85;100.00;100729.59;5035133;28;20048;-76
2022/12/22 12:45:47;;;;;;;68.85;32.65;;;;;;;7.93;100.00;100726.78;5038230;28;20032;-76
2022/12/22 12:48:19;;;;;;;71.65;34.08;;;;;;;7.92;100.00;100725.94;5036024;28;20028;-76
2022/12/22 12:50:46;;;;;;;60.92;32.17;;;;;;;7.94;100.00;100717.56;5036919;28;20895;-76
2022/12/22 12:53:13;;;;;;;67.85;31.50;;;;;;;7.94;100.00;100715.69;5033763;28;20025;-76
2022/12/22 12:55:38;;;;;;;56.55;30.38;;;;;;;7.93;100.00;100714.00;5039249;28;20115;-76
2022/12/22 12:58:08;;;;;;;57.72;30.83;;;;;;;7.95;100.00;100725.56;5035687;28;20128;-76
2022/12/22 13:00:34;;;;;;;60.25;30.75;;;;;;;7.97;100.00;100728.09;5035037;28;20037;-76
2022/12/22 13:03:04;;;;;;;60.60;29.45;;;;;;;7.92;100.00;100706.84;5034769;28;20029;-76
2022/12/22 13:05:51;;;;;;;52.92;29.95;;;;;;;7.89;100.00;100718.13;5042333;28;20079;-76
2022/12/22 13:08:24;;;;;;;56.40;29.67;;;;;;;7.91;100.00;100716.03;5035413;28;20064;-76
2022/12/22 13:10:52;;;;;;;57.40;29.77;;;;;;;7.93;100.00;100704.94;5037826;28;20025;-76
2022/12/22 13:13:20;;;;;;;54.50;29.00;;;;;;;7.98;100.00;100699.78;5038734;28;20033;-76
2022/12/22 13:15:47;;;;;;;59.17;30.48;;;;;;;8.03;100.00;100702.81;5033627;28;20035;-76
2022/12/22 13:18:22;;;;;;;58.88;29.83;;;;;;;8.11;100.00;100702.75;5040967;28;20146;-76
2022/12/22 13:20:55;;;;;;;57.40;31.17;;;;;;;8.15;100.00;100691.28;5033475;28;20507;-76
2022/12/22 13:23:21;;;;;;;53.33;28.48;;;;;;;8.18;100.00;100679.97;5031199;28;20024;-76
2022/12/22 13:26:00;;;;;;;60.03;29.70;;;;;;;8.28;100.00;100682.50;5037792;28;20032;-76
2022/12/22 13:28:26;;;;;;;52.35;28.45;;;;;;;8.35;100.00;100675.25;5036972;28;20068;-77
2022/12/22 13:31:30;;;;;;;48.60;27.63;;;;;;;8.47;100.00;100680.06;5037614;28;20056;-76
2022/12/22 13:34:27;;;;;;;48.47;26.75;;;;;;;8.55;100.00;100673.66;5025017;28;20045;-76
2022/12/22 13:36:53;;;;;;;47.22;26.73;;;;;;;8.58;100.00;100673.25;5036752;28;20033;-76
2022/12/22 13:39:18;;;;;;;47.72;27.52;;;;;;;8.65;100.00;100666.03;5036244;28;20408;-76
2022/12/22 13:41:47;;;;;;;47.50;26.55;;;;;;;8.64;100.00;100669.81;5035647;28;20041;-76
2022/12/22 13:44:28;;;;;;;45.03;25.30;;;;;;;8.66;100.00;100662.25;5029457;28;20068;-76
2022/12/22 13:46:53;;;;;;;50.90;29.35;;;;;;;8.68;100.00;100657.44;5035276;28;20031;-75
2022/12/22 13:49:22;;;;;;;49.53;26.25;;;;;;;8.70;100.00;100653.50;5039277;28;20352;-76
2022/12/22 13:51:48;;;;;;;48.15;28.05;;;;;;;8.73;100.00;100649.53;5039651;28;20610;-76
2022/12/22 13:54:21;;;;;;;48.17;27.17;;;;;;;8.69;100.00;100646.34;5035940;28;20032;-76
2022/12/22 13:56:51;;;;;;;53.58;27.83;;;;;;;8.61;100.00;100643.72;5038581;28;20028;-76
2022/12/22 13:59:30;;;;;;;43.95;26.42;;;;;;;8.60;100.00;100636.56;5027196;28;20475;-76
2022/12/22 14:02:17;;;;;;;47.40;26.75;;;;;;;8.57;100.00;100641.56;5028441;28;20538;-76
2022/12/22 14:05:02;;;;;;;48.13;28.03;;;;;;;8.60;100.00;100638.44;5040451;28;20030;-76
2022/12/22 14:07:27;;;;;;;42.90;26.00;;;;;;;8.58;100.00;100633.19;5036990;28;20503;-76
2022/12/22 14:09:56;;;;;;;50.47;26.35;;;;;;;8.59;100.00;100625.84;5037232;28;20029;-76
2022/12/22 14:12:29;;;;;;;46.28;27.52;;;;;;;8.59;100.00;100623.94;5038532;28;20436;-76
2022/12/22 14:14:57;;;;;;;48.22;27.42;;;;;;;8.59;100.00;100625.84;5039899;28;20045;-76
2022/12/22 14:17:34;;;;;;;45.92;26.33;;;;;;;8.57;100.00;100620.56;5040048;28;20052;-76
2022/12/22 14:20:02;;;;;;;;;;;;;;;8.54;100.00;100620.09;5036746;28;20507;-76
2022/12/22 14:22:34;;;;;;;43.90;23.60;;;;;;;8.55;100.00;100614.44;5034865;28;20422;-76
2022/12/22 14:25:07;;;;;;;43.88;26.27;;;;;;;8.54;100.00;100611.91;5045130;28;20270;-76
2022/12/22 14:27:38;;;;;;;43.30;25.80;;;;;;;8.54;100.00;100604.56;5030628;28;20041;-76
2022/12/22 14:30:19;;;;;;;39.35;24.23;;;;;;;8.49;100.00;100603.44;5039581;28;20064;-74
2022/12/22 14:32:47;;;;;;;46.72;25.08;;;;;;;8.46;100.00;100601.09;5041774;28;20106;-74
2022/12/22 14:35:29;;;;;;;49.33;26.40;;;;;;;8.47;100.00;100591.84;5034151;28;20453;-75
2022/12/22 14:38:21;;;;;;;40.03;24.85;;;;;;;8.37;100.00;100594.88;5044231;28;20403;-75
2022/12/22 14:40:46;;;;;;;46.60;25.65;;;;;;;8.35;100.00;100594.25;5033659;28;20041;-75
2022/12/22 14:43:18;;;;;;;43.47;23.58;;;;;;;8.31;100.00;100598.38;5037737;28;20099;-74
2022/12/22 14:45:45;;;;;;;40.55;24.55;;;;;;;8.33;100.00;100592.75;5040508;28;21688;-74
2022/12/22 14:48:23;;;;;;;38.08;24.02;;;;;;;8.32;100.00;100597.34;5042038;28;20049;-74
2022/12/22 14:50:50;;;;;;;38.90;23.52;;;;;;;8.32;100.00;100585.59;5036986;28;20546;-74
2022/12/22 14:53:25;;;;;;;44.20;26.17;;;;;;;8.26;100.00;100578.13;5037856;28;20033;-74
2022/12/22 14:55:52;;;;;;;36.28;25.02;;;;;;;8.16;100.00;100575.66;5046048;28;20026;-74
2022/12/22 14:58:27;;;;;;;44.55;25.83;;;;;;;8.19;100.00;100569.84;5039729;28;20057;-74